Time;durP1;ratioP1;P1;durP2;ratioP2;P2;SDS_P1;SDS_P2;PMS_P1;PMS_P2;Temp;Humidity;BMP_temperature;BMP_pressure;BME280_temperature;BME280_humidity;BME280_pressure;Samples;Min_cycle;Max_cycle;Signal;HPM_P1;HPM_P2
2023/12/02 00:02:14;;;;;;;10.73;7.18;;;;;;;0.17;100.00;95031.59;5033372;28;20562;-72
2023/12/02 00:04:39;;;;;;;9.95;7.13;;;;;;;0.13;100.00;95025.31;5046201;28;20139;-73
2023/12/02 00:07:04;;;;;;;10.35;7.53;;;;;;;0.13;100.00;95018.03;5043142;28;20079;-69
2023/12/02 00:09:30;;;;;;;12.80;8.07;;;;;;;0.11;100.00;95000.63;5056704;28;20057;-70
2023/12/02 00:11:55;;;;;;;11.07;7.70;;;;;;;0.16;100.00;94998.50;5058975;28;20083;-69
2023/12/02 00:14:20;;;;;;;10.68;6.97;;;;;;;-0.12;100.00;94994.97;5058843;28;20044;-72
2023/12/02 00:16:46;;;;;;;10.75;7.53;;;;;;;-0.07;100.00;94992.84;5052337;28;20067;-71
2023/12/02 00:19:11;;;;;;;9.45;7.00;;;;;;;0.01;100.00;94990.34;5040350;28;20041;-73
2023/12/02 00:21:36;;;;;;;9.25;6.82;;;;;;;-0.03;100.00;94987.56;5033906;28;20601;-71
2023/12/02 00:24:02;;;;;;;9.55;6.43;;;;;;;-0.04;100.00;94983.28;5048283;28;20044;-72
2023/12/02 00:26:28;;;;;;;10.32;7.07;;;;;;;0.04;100.00;94986.97;5063775;28;20071;-71
2023/12/02 00:28:53;;;;;;;8.98;6.57;;;;;;;0.08;100.00;94991.34;5051001;28;20044;-72
2023/12/02 00:31:19;;;;;;;9.05;6.78;;;;;;;0.12;100.00;94986.06;5041879;28;20041;-72
2023/12/02 00:33:44;;;;;;;8.90;6.50;;;;;;;0.19;100.00;94986.25;5053086;28;20041;-73
2023/12/02 00:36:10;;;;;;;9.18;6.32;;;;;;;0.24;100.00;94991.41;5043277;28;20063;-72
2023/12/02 00:38:35;;;;;;;8.50;6.80;;;;;;;0.10;100.00;94993.69;5047717;28;20660;-71
2023/12/02 00:41:01;;;;;;;8.57;6.47;;;;;;;0.12;100.00;94996.81;5048388;28;20098;-73
2023/12/02 00:43:26;;;;;;;10.63;7.20;;;;;;;0.09;100.00;95002.88;5046554;28;20398;-72
2023/12/02 00:45:52;;;;;;;9.35;7.30;;;;;;;0.16;100.00;94997.69;5049994;28;20049;-70
2023/12/02 00:48:17;;;;;;;10.93;7.53;;;;;;;0.22;100.00;95000.94;5046168;28;20044;-74
2023/12/02 00:50:43;;;;;;;8.85;7.10;;;;;;;0.12;100.00;95000.28;5052010;28;20048;-71
2023/12/02 00:53:08;;;;;;;8.40;6.03;;;;;;;-0.03;100.00;95003.72;5052359;28;20499;-72
2023/12/02 00:55:33;;;;;;;10.68;7.60;;;;;;;0.03;100.00;95002.34;5050707;28;20044;-72
2023/12/02 00:57:59;;;;;;;9.95;7.75;;;;;;;0.02;100.00;95006.16;5051004;28;20574;-70
2023/12/02 01:00:24;;;;;;;9.55;7.88;;;;;;;0.08;100.00;95010.19;5039951;28;20041;-72
2023/12/02 01:02:49;;;;;;;11.98;9.68;;;;;;;0.10;100.00;95007.94;5025494;28;20054;-74
2023/12/02 01:05:15;;;;;;;10.55;7.93;;;;;;;0.09;100.00;95010.94;5036056;28;20043;-71
2023/12/02 01:07:40;;;;;;;16.92;8.75;;;;;;;0.09;100.00;95019.03;5044645;28;20712;-73
2023/12/02 01:10:06;;;;;;;9.45;7.80;;;;;;;0.09;100.00;95017.16;5034427;28;20044;-71
2023/12/02 01:12:32;;;;;;;16.98;13.85;;;;;;;-0.02;100.00;95022.22;5046260;28;20037;-73
2023/12/02 01:14:57;;;;;;;12.15;8.60;;;;;;;-0.03;100.00;95026.00;5050829;28;20048;-71
2023/12/02 01:17:22;;;;;;;10.38;8.07;;;;;;;0.12;100.00;95031.81;5054342;28;20052;-71
2023/12/02 01:19:48;;;;;;;10.68;7.10;;;;;;;0.07;100.00;95032.06;5053176;28;20160;-69
2023/12/02 01:22:13;;;;;;;12.27;9.35;;;;;;;0.08;100.00;95018.25;5045597;28;20083;-69
2023/12/02 01:24:38;;;;;;;13.38;9.40;;;;;;;0.09;100.00;95013.66;5051100;28;20049;-70
2023/12/02 01:27:04;;;;;;;12.43;9.80;;;;;;;0.13;100.00;95011.88;5044545;28;20512;-66
2023/12/02 01:29:29;;;;;;;12.77;9.82;;;;;;;0.14;100.00;95021.50;5047231;28;20061;-71
2023/12/02 01:31:55;;;;;;;9.52;7.20;;;;;;;0.20;100.00;95020.16;5047686;28;20076;-72
2023/12/02 01:34:20;;;;;;;9.93;6.60;;;;;;;0.21;100.00;95015.53;5044031;28;20051;-71
2023/12/02 01:36:46;;;;;;;9.18;6.05;;;;;;;0.14;100.00;95027.66;5050311;28;20044;-69
2023/12/02 01:39:15;;;;;;;11.68;7.45;;;;;;;0.08;100.00;95030.94;5045032;28;20098;-69
2023/12/02 01:41:40;;;;;;;9.40;7.07;;;;;;;0.08;100.00;95025.56;5048983;28;20449;-68
2023/12/02 01:44:05;;;;;;;9.15;6.78;;;;;;;0.20;100.00;95033.59;5055320;28;20102;-70
2023/12/02 01:46:31;;;;;;;7.90;6.35;;;;;;;0.10;100.00;95034.84;5048289;28;20083;-69
2023/12/02 01:48:58;;;;;;;7.80;6.35;;;;;;;0.11;100.00;95025.66;5051923;28;20041;-68
2023/12/02 01:51:24;;;;;;;9.50;6.57;;;;;;;0.22;100.00;95035.94;5052498;28;21043;-69
2023/12/02 01:53:50;;;;;;;8.95;6.78;;;;;;;0.17;100.00;95039.66;5052705;28;20057;-68
2023/12/02 01:56:16;;;;;;;7.90;5.90;;;;;;;0.16;100.00;95033.50;5046138;28;20711;-68
2023/12/02 01:58:41;;;;;;;8.45;6.53;;;;;;;0.22;100.00;95033.25;5034079;28;20045;-69
2023/12/02 02:01:06;;;;;;;8.68;6.35;;;;;;;0.15;100.00;95053.47;5045517;28;20492;-68
2023/12/02 02:03:32;;;;;;;11.35;7.13;;;;;;;0.16;100.00;95032.69;5051970;28;20830;-70
2023/12/02 02:05:58;;;;;;;8.85;6.68;;;;;;;0.17;100.00;95032.38;5053127;28;20140;-68
2023/12/02 02:08:23;;;;;;;8.77;6.50;;;;;;;0.14;100.00;95035.72;5046887;28;20040;-68
2023/12/02 02:10:55;;;;;;;9.45;6.70;;;;;;;0.11;100.00;95049.09;5050026;28;20495;-69
2023/12/02 02:13:21;;;;;;;9.20;6.57;;;;;;;0.13;100.00;95063.78;5037728;28;20037;-68
2023/12/02 02:15:46;;;;;;;9.82;6.97;;;;;;;0.18;100.00;95054.69;5052992;28;20113;-69
2023/12/02 02:18:11;;;;;;;9.13;7.03;;;;;;;0.13;100.00;95054.94;5047282;28;20125;-69
2023/12/02 02:20:37;;;;;;;11.05;6.88;;;;;;;0.11;100.00;95062.53;5048314;28;20044;-69
2023/12/02 02:23:02;;;;;;;8.25;6.55;;;;;;;0.16;100.00;95055.03;5058935;28;20539;-69
2023/12/02 02:25:27;;;;;;;10.40;7.38;;;;;;;0.15;100.00;95058.84;5057293;28;20068;-69
2023/12/02 02:27:53;;;;;;;10.02;7.25;;;;;;;0.23;100.00;95045.59;5053075;28;20113;-69
2023/12/02 02:30:19;;;;;;;8.68;6.65;;;;;;;0.01;100.00;95041.50;5044669;28;20045;-70
2023/12/02 02:32:44;;;;;;;10.15;7.63;;;;;;;0.13;100.00;95044.16;5040520;28;20075;-70
2023/12/02 02:35:09;;;;;;;9.48;7.13;;;;;;;0.08;100.00;95037.09;5045964;28;20048;-68
2023/12/02 02:37:35;;;;;;;9.65;7.05;;;;;;;0.12;100.00;95053.34;5051964;28;20114;-70
2023/12/02 02:40:00;;;;;;;10.20;7.35;;;;;;;0.10;100.00;95045.63;5035578;28;20045;-70
2023/12/02 02:42:25;;;;;;;10.52;6.95;;;;;;;0.17;100.00;95036.97;5049161;28;20060;-70
2023/12/02 02:44:51;;;;;;;9.95;7.38;;;;;;;0.12;100.00;95050.66;5053372;28;20045;-71
2023/12/02 02:47:16;;;;;;;9.70;7.35;;;;;;;0.11;100.00;95057.16;5043310;28;20040;-68
2023/12/02 02:49:41;;;;;;;11.38;7.65;;;;;;;0.06;100.00;95054.72;5051487;28;20059;-70
2023/12/02 02:52:07;;;;;;;11.02;7.72;;;;;;;0.02;100.00;95067.28;5045575;28;20461;-70
2023/12/02 02:54:34;;;;;;;11.48;8.25;;;;;;;-0.14;100.00;95077.97;5069790;28;20147;-69
2023/12/02 02:57:00;;;;;;;11.10;7.60;;;;;;;-0.15;100.00;95071.78;5052857;28;20589;-69
2023/12/02 02:59:25;;;;;;;9.75;7.55;;;;;;;0.00;100.00;95073.03;5030974;28;20139;-69
2023/12/02 03:01:51;;;;;;;10.07;7.32;;;;;;;0.01;100.00;95061.13;5052994;28;20127;-70
2023/12/02 03:04:16;;;;;;;10.00;7.20;;;;;;;-0.03;100.00;95062.91;5041707;28;20156;-71
2023/12/02 03:06:41;;;;;;;11.93;8.20;;;;;;;0.03;100.00;95055.41;5035892;28;20137;-71
2023/12/02 03:09:07;;;;;;;10.23;7.68;;;;;;;0.08;100.00;95045.19;5042944;28;20201;-70
2023/12/02 03:11:32;;;;;;;11.00;7.80;;;;;;;0.08;100.00;95039.00;5051592;28;20040;-71
2023/12/02 03:13:58;;;;;;;12.02;7.75;;;;;;;0.05;100.00;95053.16;5049540;28;20048;-70
2023/12/02 03:16:24;;;;;;;11.80;8.88;;;;;;;0.03;100.00;95050.00;5047911;28;20535;-69
2023/12/02 03:18:49;;;;;;;11.27;8.63;;;;;;;0.04;100.00;95065.03;5052490;28;20114;-70
2023/12/02 03:21:14;;;;;;;11.75;8.35;;;;;;;0.05;100.00;95058.53;5034057;28;20418;-70
2023/12/02 03:23:40;;;;;;;12.68;8.90;;;;;;;0.13;100.00;95052.25;5072742;28;20056;-72
2023/12/02 03:26:06;;;;;;;11.13;8.60;;;;;;;-0.01;100.00;95058.75;5049849;28;20140;-69
2023/12/02 03:28:31;;;;;;;11.30;8.48;;;;;;;0.06;100.00;95074.34;5050631;28;20110;-71
2023/12/02 03:30:57;;;;;;;13.65;9.02;;;;;;;-0.09;100.00;95088.47;5053258;28;20048;-70
2023/12/02 03:33:22;;;;;;;13.35;8.98;;;;;;;-0.08;100.00;95093.53;5052432;28;20376;-70
2023/12/02 03:35:48;;;;;;;12.13;8.45;;;;;;;-0.02;100.00;95089.50;5052544;28;20491;-70
2023/12/02 03:38:13;;;;;;;12.32;8.32;;;;;;;0.00;100.00;95097.25;5044291;28;20491;-70
2023/12/02 03:40:38;;;;;;;11.48;8.15;;;;;;;-0.04;100.00;95091.75;5047723;28;20036;-70
2023/12/02 03:43:04;;;;;;;13.98;8.93;;;;;;;0.04;100.00;95089.25;5043104;28;20427;-69
2023/12/02 03:45:29;;;;;;;12.52;9.35;;;;;;;-0.02;100.00;95089.50;5051365;28;20056;-71
2023/12/02 03:47:55;;;;;;;13.88;9.48;;;;;;;0.00;100.00;95099.94;5047872;28;20063;-71
2023/12/02 03:50:20;;;;;;;12.82;9.38;;;;;;;-0.04;100.00;95107.91;5030348;28;20044;-70
2023/12/02 03:52:45;;;;;;;11.95;9.20;;;;;;;-0.08;100.00;95106.22;5050865;28;20051;-70
2023/12/02 03:55:11;;;;;;;11.90;8.85;;;;;;;-0.03;100.00;95105.97;5059548;28;20074;-70
2023/12/02 03:57:36;;;;;;;11.68;8.07;;;;;;;-0.05;100.00;95111.69;5049178;28;20041;-70
2023/12/02 04:00:10;;;;;;;12.75;9.10;;;;;;;-0.03;100.00;95105.97;5052476;28;20407;-70
2023/12/02 04:02:38;;;;;;;14.68;8.77;;;;;;;-0.04;100.00;95113.28;5047171;28;20045;-69
2023/12/02 04:05:08;;;;;;;12.70;9.10;;;;;;;-0.11;100.00;95133.78;5042014;28;20052;-70
2023/12/02 04:07:34;;;;;;;14.30;9.70;;;;;;;-0.05;100.00;95138.63;5051414;28;20044;-71
2023/12/02 04:10:00;;;;;;;14.10;9.65;;;;;;;0.02;100.00;95156.91;5050377;28;20040;-70
2023/12/02 04:12:26;;;;;;;14.40;9.68;;;;;;;-0.04;100.00;95160.94;5041489;28;20044;-68
2023/12/02 04:14:51;;;;;;;13.38;9.70;;;;;;;-0.03;100.00;95160.59;5066016;28;20041;-69
2023/12/02 04:17:17;;;;;;;15.10;9.10;;;;;;;-0.02;100.00;95158.69;5044030;28;20051;-69
2023/12/02 04:19:43;;;;;;;15.98;9.52;;;;;;;0.04;100.00;95162.75;5049278;28;20044;-69
2023/12/02 04:22:08;;;;;;;15.95;9.70;;;;;;;-0.02;100.00;95166.75;5044402;28;20118;-68
2023/12/02 04:24:33;;;;;;;13.85;10.43;;;;;;;-0.01;100.00;95174.50;5049377;28;20496;-69
2023/12/02 04:26:59;;;;;;;14.80;10.00;;;;;;;0.02;100.00;95183.03;5050819;28;20040;-71
2023/12/02 04:29:24;;;;;;;14.55;9.85;;;;;;;-0.09;100.00;95196.13;5042510;28;20521;-68
2023/12/02 04:31:49;;;;;;;21.77;13.55;;;;;;;-0.25;100.00;95194.09;5037318;28;20517;-71
2023/12/02 04:34:15;;;;;;;14.45;10.45;;;;;;;-0.29;100.00;95187.03;5043140;28;20580;-68
2023/12/02 04:36:40;;;;;;;14.52;9.88;;;;;;;-0.13;100.00;95192.53;5060258;28;20515;-69
2023/12/02 04:39:05;;;;;;;16.08;10.95;;;;;;;-0.12;100.00;95186.06;5046063;28;20062;-70
2023/12/02 04:41:31;;;;;;;13.93;10.20;;;;;;;-0.01;100.00;95179.88;5047758;28;20049;-70
2023/12/02 04:43:56;;;;;;;15.43;10.30;;;;;;;0.02;100.00;95185.72;5046749;28;20116;-69
2023/12/02 04:46:22;;;;;;;17.38;10.35;;;;;;;0.07;100.00;95182.81;5045022;28;20616;-70
2023/12/02 04:48:47;;;;;;;15.38;10.57;;;;;;;0.10;100.00;95179.44;5043295;28;20045;-70
2023/12/02 04:51:12;;;;;;;14.32;9.85;;;;;;;0.08;100.00;95179.00;5049342;28;20044;-70
2023/12/02 04:53:38;;;;;;;15.43;10.60;;;;;;;-0.06;100.00;95185.47;5048079;28;20067;-69
2023/12/02 04:56:05;;;;;;;14.95;9.98;;;;;;;-0.07;100.00;95191.22;5045223;28;20040;-68
2023/12/02 04:58:30;;;;;;;13.52;9.57;;;;;;;-0.01;100.00;95197.94;5062571;28;20055;-71
2023/12/02 05:00:56;;;;;;;17.27;10.18;;;;;;;-0.09;100.00;95205.00;5052365;28;20075;-68
2023/12/02 05:03:21;;;;;;;16.50;10.50;;;;;;;-0.11;100.00;95207.25;5045053;28;20795;-69
2023/12/02 05:05:47;;;;;;;16.92;10.15;;;;;;;-0.14;100.00;95218.69;5053713;28;20043;-69
2023/12/02 05:08:13;;;;;;;14.77;9.68;;;;;;;-0.25;100.00;95226.41;5030564;28;20611;-69
2023/12/02 05:10:38;;;;;;;15.20;9.90;;;;;;;-0.14;100.00;95234.81;5049503;28;20136;-69
2023/12/02 05:13:04;;;;;;;15.52;10.20;;;;;;;-0.17;100.00;95237.41;5034511;28;20127;-68
2023/12/02 05:15:29;;;;;;;14.52;9.82;;;;;;;-0.22;100.00;95239.19;5060232;28;20047;-69
2023/12/02 05:17:54;;;;;;;17.70;9.52;;;;;;;-0.23;100.00;95243.00;5055594;28;20438;-70
2023/12/02 05:20:20;;;;;;;15.15;10.02;;;;;;;-0.16;100.00;95237.06;5049069;28;20210;-69
2023/12/02 05:22:46;;;;;;;13.85;9.23;;;;;;;-0.14;100.00;95236.75;5048863;28;20051;-70
2023/12/02 05:25:11;;;;;;;14.40;9.80;;;;;;;-0.14;100.00;95239.44;5051416;28;20041;-68
2023/12/02 05:27:36;;;;;;;15.77;9.63;;;;;;;-0.12;100.00;95242.56;5043867;28;20052;-68
2023/12/02 05:30:04;;;;;;;14.00;9.90;;;;;;;-0.04;100.00;95233.59;5050218;28;20045;-68
2023/12/02 05:32:29;;;;;;;12.88;9.10;;;;;;;-0.07;100.00;95227.00;5073155;28;20647;-70
2023/12/02 05:34:55;;;;;;;13.18;9.35;;;;;;;0.05;100.00;95225.44;5051547;28;20051;-69
2023/12/02 05:37:20;;;;;;;19.15;10.00;;;;;;;0.04;100.00;95230.03;5043563;28;20048;-69
2023/12/02 05:39:45;;;;;;;13.55;9.25;;;;;;;-0.06;100.00;95228.53;5040402;28;20426;-70
2023/12/02 05:42:12;;;;;;;15.48;8.65;;;;;;;-0.05;100.00;95224.75;5049793;28;20530;-70
2023/12/02 05:44:40;;;;;;;13.38;8.85;;;;;;;-0.03;100.00;95230.56;5045747;28;20053;-70
2023/12/02 05:47:05;;;;;;;17.00;9.45;;;;;;;0.00;100.00;95231.84;5033979;28;20041;-70
2023/12/02 05:49:31;;;;;;;13.57;8.40;;;;;;;-0.06;100.00;95225.84;5065870;28;20056;-70
2023/12/02 05:51:56;;;;;;;12.05;8.55;;;;;;;-0.11;100.00;95242.25;5059182;28;20044;-71
2023/12/02 05:54:21;;;;;;;12.18;8.27;;;;;;;-0.45;100.00;95237.97;5030171;28;20059;-69
2023/12/02 05:56:47;;;;;;;12.80;8.35;;;;;;;-0.39;100.00;95240.13;5049630;28;20127;-69
2023/12/02 05:59:12;;;;;;;13.13;8.57;;;;;;;-0.46;100.00;95245.28;5047526;28;20562;-71
2023/12/02 06:01:38;;;;;;;13.75;9.10;;;;;;;-0.48;100.00;95254.78;5069994;28;20036;-69
2023/12/02 06:04:03;;;;;;;13.90;8.23;;;;;;;-0.51;100.00;95256.22;5064650;28;20053;-69
2023/12/02 06:06:29;;;;;;;12.77;8.13;;;;;;;-0.93;100.00;95260.88;5046041;28;20036;-69
2023/12/02 06:08:55;;;;;;;14.85;9.23;;;;;;;-1.12;100.00;95258.63;5046221;28;20037;-70
2023/12/02 06:11:20;;;;;;;26.45;13.55;;;;;;;-1.27;100.00;95274.19;5047242;28;20048;-70
2023/12/02 06:13:46;;;;;;;16.90;9.05;;;;;;;-1.31;100.00;95272.50;5051199;28;20060;-70
2023/12/02 06:16:12;;;;;;;14.65;9.07;;;;;;;-1.23;100.00;95277.78;5043335;28;20094;-70
2023/12/02 06:18:37;;;;;;;14.63;9.38;;;;;;;-1.09;100.00;95279.47;5045954;28;20124;-70
2023/12/02 06:21:02;;;;;;;15.80;10.13;;;;;;;-1.00;100.00;95277.50;5054171;28;20041;-69
2023/12/02 06:23:28;;;;;;;16.83;10.18;;;;;;;-0.85;100.00;95281.50;5066969;28;20048;-69
2023/12/02 06:25:53;;;;;;;19.15;12.07;;;;;;;-0.81;100.00;95288.59;5042930;28;20086;-69
2023/12/02 06:28:20;;;;;;;18.50;11.27;;;;;;;-0.75;100.00;95291.88;5036740;28;20072;-69
2023/12/02 06:30:45;;;;;;;16.52;10.05;;;;;;;-0.54;100.00;95301.81;5051410;28;20064;-69
2023/12/02 06:33:11;;;;;;;14.80;8.98;;;;;;;-0.47;100.00;95305.56;5025029;28;20403;-69
2023/12/02 06:35:36;;;;;;;16.00;9.98;;;;;;;-0.44;100.00;95318.34;5032424;28;20049;-68
2023/12/02 06:38:01;;;;;;;14.35;9.52;;;;;;;-0.39;100.00;95317.38;5035686;28;20041;-68
2023/12/02 06:40:27;;;;;;;16.48;8.90;;;;;;;-0.35;100.00;95314.81;5029766;28;20044;-70
2023/12/02 06:42:52;;;;;;;13.85;9.18;;;;;;;-0.43;100.00;95309.16;5045972;28;20076;-70
2023/12/02 06:45:18;;;;;;;15.30;10.75;;;;;;;-0.46;100.00;95317.91;5036233;28;20045;-70
2023/12/02 06:47:44;;;;;;;14.30;10.52;;;;;;;-0.67;100.00;95319.81;5021925;28;20714;-70
2023/12/02 06:50:10;;;;;;;14.50;9.60;;;;;;;-0.86;100.00;95328.34;5057675;28;20048;-69
2023/12/02 06:52:35;;;;;;;18.70;10.55;;;;;;;-0.84;100.00;95332.25;5041608;28;20045;-69
2023/12/02 06:55:01;;;;;;;22.45;12.10;;;;;;;-0.67;100.00;95336.72;5037376;28;20041;-71
2023/12/02 06:57:26;;;;;;;16.00;10.45;;;;;;;-0.59;100.00;95337.78;5019213;28;20041;-71
2023/12/02 06:59:51;;;;;;;17.73;10.32;;;;;;;-0.55;100.00;95344.06;5026590;28;20049;-70
2023/12/02 07:02:18;;;;;;;15.73;10.48;;;;;;;-0.50;100.00;95338.50;5024705;28;20052;-69
2023/12/02 07:04:45;;;;;;;15.15;9.15;;;;;;;-0.47;100.00;95340.53;5031639;28;20056;-69
2023/12/02 07:07:11;;;;;;;13.05;9.43;;;;;;;-0.47;100.00;95351.31;5007695;28;20037;-68
2023/12/02 07:09:36;;;;;;;14.20;8.88;;;;;;;-0.45;100.00;95348.25;5027092;28;20091;-68
2023/12/02 07:12:02;;;;;;;15.77;9.15;;;;;;;-0.48;100.00;95357.78;5021228;28;20045;-68
2023/12/02 07:14:27;;;;;;;12.43;7.43;;;;;;;-0.26;100.00;95356.66;5033396;28;20048;-68
2023/12/02 07:16:53;;;;;;;10.00;6.57;;;;;;;-0.15;100.00;95365.13;5035216;28;20129;-70
2023/12/02 07:19:19;;;;;;;7.43;5.28;;;;;;;-0.07;100.00;95372.34;5024022;28;20059;-70
2023/12/02 07:21:44;;;;;;;7.15;5.10;;;;;;;-0.18;100.00;95373.06;5050325;28;20044;-69
2023/12/02 07:24:10;;;;;;;8.05;5.28;;;;;;;-0.15;100.00;95372.41;5019253;28;20049;-68
2023/12/02 07:26:36;;;;;;;7.70;5.20;;;;;;;-0.13;100.00;95378.25;5019963;28;20077;-70
2023/12/02 07:29:01;;;;;;;6.53;4.90;;;;;;;-0.23;100.00;95372.16;5020662;28;20057;-68
2023/12/02 07:31:27;;;;;;;6.57;5.20;;;;;;;-0.21;100.00;95383.38;5029413;28;20124;-68
2023/12/02 07:33:53;;;;;;;9.27;6.10;;;;;;;-0.17;100.00;95388.09;5026187;28;20053;-69
2023/12/02 07:36:18;;;;;;;6.47;5.03;;;;;;;-0.17;100.00;95394.25;5026393;28;20040;-69
2023/12/02 07:38:43;;;;;;;7.60;4.93;;;;;;;-0.26;100.00;95397.00;5036896;28;20848;-70
2023/12/02 07:41:09;;;;;;;10.48;5.55;;;;;;;-0.15;100.00;95400.09;5025664;28;20131;-68
2023/12/02 07:43:34;;;;;;;8.30;6.28;;;;;;;-0.07;100.00;95403.84;5027382;28;20136;-69
2023/12/02 07:46:00;;;;;;;10.10;5.82;;;;;;;-0.05;100.00;95415.84;5022625;28;20041;-68
2023/12/02 07:48:25;;;;;;;9.65;6.07;;;;;;;-0.01;100.00;95413.28;5026371;28;20045;-69
2023/12/02 07:50:51;;;;;;;6.95;5.13;;;;;;;0.02;100.00;95426.09;5030300;28;20041;-70
2023/12/02 07:53:16;;;;;;;8.38;5.32;;;;;;;-0.11;100.00;95429.84;5033140;28;20038;-70
2023/12/02 07:55:42;;;;;;;8.75;5.80;;;;;;;-0.05;100.00;95440.09;5037907;28;20047;-69
2023/12/02 07:58:07;;;;;;;11.65;6.90;;;;;;;-0.02;100.00;95455.59;5045043;28;20037;-70
2023/12/02 08:00:32;;;;;;;9.35;6.30;;;;;;;-0.01;100.00;95457.13;5025573;28;20041;-69
2023/12/02 08:02:58;;;;;;;10.60;6.80;;;;;;;-0.07;100.00;95471.94;5036111;28;20106;-70
2023/12/02 08:05:23;;;;;;;12.57;7.78;;;;;;;-0.15;100.00;95478.16;5017323;28;20238;-71
2023/12/02 08:07:49;;;;;;;9.30;6.93;;;;;;;0.03;100.00;95486.88;5028508;28;20040;-69
2023/12/02 08:10:15;;;;;;;11.63;8.20;;;;;;;0.03;100.00;95491.50;5028597;28;20128;-69
2023/12/02 08:12:41;;;;;;;14.75;8.07;;;;;;;0.04;100.00;95487.66;5029031;28;20400;-70
2023/12/02 08:15:07;;;;;;;12.55;7.43;;;;;;;0.08;100.00;95488.59;5017276;28;20045;-69
2023/12/02 08:17:34;;;;;;;13.07;8.35;;;;;;;0.11;100.00;95487.94;5021942;28;20365;-69
2023/12/02 08:19:59;;;;;;;12.10;7.63;;;;;;;0.15;100.00;95486.94;5020420;28;20105;-70
2023/12/02 08:22:25;;;;;;;12.98;8.65;;;;;;;0.13;100.00;95504.56;5028181;28;20191;-70
2023/12/02 08:24:53;;;;;;;14.57;7.97;;;;;;;0.14;100.00;95498.81;5038647;28;20077;-70
2023/12/02 08:27:19;;;;;;;12.83;7.87;;;;;;;0.11;100.00;95512.16;5018313;28;20080;-70
2023/12/02 08:29:45;;;;;;;13.05;8.20;;;;;;;0.13;100.00;95512.66;5020942;28;20648;-70
2023/12/02 08:32:10;;;;;;;12.10;8.13;;;;;;;0.12;100.00;95511.84;5023901;28;20056;-70
2023/12/02 08:34:36;;;;;;;17.30;10.27;;;;;;;0.15;100.00;95510.41;5028795;28;20056;-70
2023/12/02 08:37:02;;;;;;;16.50;9.52;;;;;;;0.18;100.00;95502.47;5027329;28;20037;-70
2023/12/02 08:39:28;;;;;;;18.77;9.68;;;;;;;0.18;100.00;95515.13;5016396;28;20526;-70
2023/12/02 08:41:53;;;;;;;16.08;9.88;;;;;;;0.14;100.00;95517.69;5020677;28;20099;-71
2023/12/02 08:44:18;;;;;;;21.50;12.18;;;;;;;0.12;100.00;95522.59;5015771;28;20389;-69
2023/12/02 08:46:44;;;;;;;20.15;10.93;;;;;;;0.18;100.00;95526.69;5019339;28;20038;-70
2023/12/02 08:49:09;;;;;;;15.73;10.05;;;;;;;0.23;100.00;95525.69;5027527;28;20049;-70
2023/12/02 08:51:35;;;;;;;15.68;8.90;;;;;;;0.30;100.00;95530.56;5034181;28;20562;-69
2023/12/02 08:54:01;;;;;;;16.13;9.85;;;;;;;0.32;100.00;95534.50;5039024;28;20073;-69
2023/12/02 08:56:28;;;;;;;14.65;8.82;;;;;;;0.37;100.00;95546.97;5031072;28;20534;-70
2023/12/02 08:58:54;;;;;;;15.32;8.40;;;;;;;0.41;100.00;95545.19;5027191;28;20038;-70
2023/12/02 09:01:22;;;;;;;13.57;9.27;;;;;;;0.50;100.00;95542.44;5034025;28;20052;-72
2023/12/02 09:03:47;;;;;;;15.00;8.52;;;;;;;0.41;100.00;95542.50;5023565;28;20148;-70
2023/12/02 09:06:13;;;;;;;16.95;9.23;;;;;;;0.46;100.00;95555.00;5025804;28;20120;-69
2023/12/02 09:08:38;;;;;;;16.85;9.65;;;;;;;0.50;100.00;95548.59;5026367;28;20048;-71
2023/12/02 09:11:04;;;;;;;14.82;9.13;;;;;;;0.55;100.00;95553.81;5025246;28;20044;-68
2023/12/02 09:13:39;;;;;;;12.60;8.55;;;;;;;0.54;100.00;95559.53;5021802;28;20614;-70
2023/12/02 09:16:07;;;;;;;12.85;8.20;;;;;;;0.22;100.00;95558.34;5019152;28;20389;-69
2023/12/02 09:18:37;;;;;;;12.63;8.63;;;;;;;0.29;100.00;95564.78;5032796;28;20053;-69
2023/12/02 09:21:03;;;;;;;12.18;8.63;;;;;;;0.41;100.00;95571.38;5026390;28;20037;-70
2023/12/02 09:23:29;;;;;;;39.83;11.85;;;;;;;0.62;100.00;95569.44;5043492;28;20526;-70
2023/12/02 09:25:58;;;;;;;14.10;8.52;;;;;;;0.81;100.00;95577.06;5027203;28;20041;-71
2023/12/02 09:28:29;;;;;;;14.55;8.95;;;;;;;0.63;100.00;95581.00;5020912;28;20049;-69
2023/12/02 09:31:08;;;;;;;13.18;8.45;;;;;;;0.77;100.00;95589.59;5028313;28;20091;-69
2023/12/02 09:33:34;;;;;;;13.18;8.13;;;;;;;0.78;100.00;95601.19;5030514;28;20129;-70
2023/12/02 09:36:04;;;;;;;13.40;8.82;;;;;;;0.92;100.00;95599.00;5038022;28;20203;-69
2023/12/02 09:38:32;;;;;;;12.27;8.85;;;;;;;1.03;100.00;95610.19;5045675;28;20041;-69
2023/12/02 09:41:17;;;;;;;18.00;11.48;;;;;;;0.66;100.00;95612.69;5034646;28;20388;-68
2023/12/02 09:44:05;;;;;;;12.35;8.55;;;;;;;0.82;100.00;95612.88;5053330;28;20057;-68
2023/12/02 09:46:44;;;;;;;11.32;7.03;;;;;;;0.90;100.00;95618.22;5031684;28;20073;-68
2023/12/02 09:49:44;;;;;;;10.88;7.53;;;;;;;0.88;100.00;95633.94;5019079;28;20041;-69
2023/12/02 09:52:25;;;;;;;10.02;6.70;;;;;;;0.91;100.00;95629.78;5022296;28;20535;-70
2023/12/02 09:55:04;;;;;;;10.10;6.30;;;;;;;1.03;100.00;95624.44;5022542;28;20045;-69
2023/12/02 09:57:51;;;;;;;8.45;5.65;;;;;;;0.93;100.00;95639.09;5022597;28;20413;-70
2023/12/02 10:00:32;;;;;;;10.77;6.63;;;;;;;1.02;100.00;95630.94;5025760;28;20430;-69
2023/12/02 10:03:06;;;;;;;16.88;8.35;;;;;;;1.09;100.00;95635.81;5024115;28;20364;-70
2023/12/02 10:05:48;;;;;;;21.60;9.00;;;;;;;1.00;100.00;95641.28;5044456;28;20049;-68
2023/12/02 10:08:26;;;;;;;11.15;7.22;;;;;;;1.08;100.00;95651.22;5027196;28;20032;-70
2023/12/02 10:10:57;;;;;;;9.23;5.68;;;;;;;1.03;100.00;95647.94;5022482;28;20496;-69
2023/12/02 10:13:33;;;;;;;43.03;15.10;;;;;;;0.81;100.00;95654.44;5034489;28;20053;-70
2023/12/02 10:16:04;;;;;;;20.05;8.55;;;;;;;1.00;100.00;95656.66;5022494;28;20118;-70
2023/12/02 10:18:37;;;;;;;13.90;7.10;;;;;;;1.04;100.00;95663.75;5029347;28;20527;-70
2023/12/02 10:21:08;;;;;;;10.73;5.53;;;;;;;1.16;100.00;95673.03;5021409;28;20049;-69
2023/12/02 10:23:47;;;;;;;11.60;6.95;;;;;;;1.20;100.00;95668.56;5030594;28;20053;-71
2023/12/02 10:26:18;;;;;;;11.30;6.70;;;;;;;1.18;100.00;95673.50;5024368;28;20128;-69
2023/12/02 10:28:47;;;;;;;8.18;5.53;;;;;;;0.83;100.00;95679.16;5030603;28;20038;-69
2023/12/02 10:31:26;;;;;;;9.37;5.87;;;;;;;0.89;100.00;95680.53;5016058;28;20071;-70
2023/12/02 10:34:43;;;;;;;9.30;6.00;;;;;;;0.91;100.00;95684.47;5029486;28;20040;-69
2023/12/02 10:37:11;;;;;;;7.95;5.40;;;;;;;0.69;100.00;95687.50;4985112;28;20045;-69
2023/12/02 10:39:46;;;;;;;9.13;5.85;;;;;;;0.79;100.00;95683.63;5020724;28;20064;-71
2023/12/02 10:42:19;;;;;;;11.35;6.38;;;;;;;0.71;100.00;95679.88;5033756;28;20074;-69
2023/12/02 10:44:48;;;;;;;12.70;7.40;;;;;;;0.66;100.00;95683.53;5026712;28;20033;-69
2023/12/02 10:47:16;;;;;;;10.38;6.32;;;;;;;0.61;100.00;95681.03;5017598;28;20037;-70
2023/12/02 10:49:42;;;;;;;8.32;5.78;;;;;;;0.51;100.00;95682.22;5028773;28;20038;-71
2023/12/02 10:52:12;;;;;;;23.25;9.95;;;;;;;0.44;100.00;95681.16;5016393;28;20046;-69
2023/12/02 10:54:41;;;;;;;;;;;;;;;0.42;100.00;95678.00;5024953;28;20044;-69
2023/12/02 10:57:07;;;;;;;8.30;5.63;;;;;;;0.44;100.00;95689.25;5021282;28;20455;-68
2023/12/02 11:00:11;;;;;;;9.25;5.57;;;;;;;0.46;100.00;95687.78;5034590;28;20056;-70
2023/12/02 11:03:00;;;;;;;7.60;5.20;;;;;;;0.42;100.00;95688.78;5038419;28;20495;-70
2023/12/02 11:05:28;;;;;;;;;;;;;;;0.43;100.00;95687.66;5046310;28;20053;-68
2023/12/02 11:08:06;;;;;;;7.95;5.07;;;;;;;0.48;100.00;95695.56;5026049;28;19931;-69
2023/12/02 11:10:52;;;;;;;8.43;5.35;;;;;;;0.51;100.00;95694.91;5049546;28;20040;-68
2023/12/02 11:13:26;;;;;;;7.97;5.85;;;;;;;0.51;100.00;95701.09;5037450;28;20041;-69
2023/12/02 11:16:19;;;;;;;9.02;5.95;;;;;;;0.63;100.00;95703.09;5034489;28;20045;-68
2023/12/02 11:19:03;;;;;;;6.95;4.60;;;;;;;0.67;100.00;95704.00;5046159;28;20059;-68
2023/12/02 11:21:44;;;;;;;8.32;4.90;;;;;;;0.80;100.00;95706.78;5032705;28;20501;-70
2023/12/02 11:24:35;;;;;;;10.32;6.68;;;;;;;0.85;100.00;95715.47;5048280;28;20102;-68
2023/12/02 11:27:04;;;;;;;11.32;7.30;;;;;;;0.86;100.00;95729.72;5020762;28;20044;-68